sensor_id;sensor_type;location;lat;lon;timestamp;temperature;humidity
21844;DHT22;11084;52.482;9.108;2022-09-27T00:02:23;10.40;99.90
21844;DHT22;11084;52.482;9.108;2022-09-27T00:04:49;10.40;99.90
21844;DHT22;11084;52.482;9.108;2022-09-27T00:07:15;10.40;99.90
21844;DHT22;11084;52.482;9.108;2022-09-27T00:09:41;10.40;99.90
21844;DHT22;11084;52.482;9.108;2022-09-27T00:12:08;10.40;99.90
21844;DHT22;11084;52.482;9.108;2022-09-27T00:14:34;10.40;99.90
21844;DHT22;11084;52.482;9.108;2022-09-27T00:17:00;10.40;99.90
21844;DHT22;11084;52.482;9.108;2022-09-27T00:19:26;10.40;99.90
21844;DHT22;11084;52.482;9.108;2022-09-27T00:21:53;10.40;99.90
21844;DHT22;11084;52.482;9.108;2022-09-27T00:24:20;10.40;99.90
21844;DHT22;11084;52.482;9.108;2022-09-27T00:26:48;10.40;99.90
21844;DHT22;11084;52.482;9.108;2022-09-27T00:29:17;10.40;99.90
21844;DHT22;11084;52.482;9.108;2022-09-27T00:31:44;10.40;99.90
21844;DHT22;11084;52.482;9.108;2022-09-27T00:34:19;10.50;99.90
21844;DHT22;11084;52.482;9.108;2022-09-27T00:36:51;10.40;99.90
21844;DHT22;11084;52.482;9.108;2022-09-27T00:39:18;10.40;99.90
21844;DHT22;11084;52.482;9.108;2022-09-27T00:41:44;10.40;99.90
21844;DHT22;11084;52.482;9.108;2022-09-27T00:53:18;10.40;99.90
21844;DHT22;11084;52.482;9.108;2022-09-27T00:55:53;10.50;99.90
21844;DHT22;11084;52.482;9.108;2022-09-27T00:58:27;10.50;99.90
21844;DHT22;11084;52.482;9.108;2022-09-27T01:00:59;10.40;99.90
21844;DHT22;11084;52.482;9.108;2022-09-27T01:03:52;10.40;99.90
21844;DHT22;11084;52.482;9.108;2022-09-27T01:06:22;10.40;99.90
21844;DHT22;11084;52.482;9.108;2022-09-27T01:08:48;10.50;99.90
21844;DHT22;11084;52.482;9.108;2022-09-27T01:22:28;10.50;99.90
21844;DHT22;11084;52.482;9.108;2022-09-27T01:30:58;10.50;99.90
21844;DHT22;11084;52.482;9.108;2022-09-27T01:33:52;10.60;99.90
21844;DHT22;11084;52.482;9.108;2022-09-27T01:37:08;10.50;99.90
21844;DHT22;11084;52.482;9.108;2022-09-27T01:39:49;10.50;99.90
21844;DHT22;11084;52.482;9.108;2022-09-27T01:42:49;10.50;99.90
21844;DHT22;11084;52.482;9.108;2022-09-27T01:45:29;10.50;99.90
21844;DHT22;11084;52.482;9.108;2022-09-27T01:48:11;10.50;99.90
21844;DHT22;11084;52.482;9.108;2022-09-27T01:51:10;10.60;99.90
21844;DHT22;11084;52.482;9.108;2022-09-27T01:53:53;10.60;99.90
21844;DHT22;11084;52.482;9.108;2022-09-27T01:56:48;10.60;99.90
21844;DHT22;11084;52.482;9.108;2022-09-27T01:59:52;10.60;99.90
21844;DHT22;11084;52.482;9.108;2022-09-27T02:02:56;10.60;99.90
21844;DHT22;11084;52.482;9.108;2022-09-27T02:05:49;10.60;99.90
21844;DHT22;11084;52.482;9.108;2022-09-27T02:12:11;10.60;99.90
21844;DHT22;11084;52.482;9.108;2022-09-27T02:14:57;10.60;99.90
21844;DHT22;11084;52.482;9.108;2022-09-27T02:17:55;10.60;99.90
21844;DHT22;11084;52.482;9.108;2022-09-27T02:20:41;10.70;99.90
21844;DHT22;11084;52.482;9.108;2022-09-27T02:23:22;10.70;99.90
21844;DHT22;11084;52.482;9.108;2022-09-27T02:26:19;10.70;99.90
21844;DHT22;11084;52.482;9.108;2022-09-27T02:29:14;10.70;99.90
21844;DHT22;11084;52.482;9.108;2022-09-27T02:31:49;10.70;99.90
21844;DHT22;11084;52.482;9.108;2022-09-27T02:34:30;10.70;99.90
21844;DHT22;11084;52.482;9.108;2022-09-27T02:36:59;10.70;99.90
21844;DHT22;11084;52.482;9.108;2022-09-27T02:39:27;10.70;99.90
21844;DHT22;11084;52.482;9.108;2022-09-27T02:42:00;10.70;99.90
21844;DHT22;11084;52.482;9.108;2022-09-27T02:44:27;10.70;99.90
21844;DHT22;11084;52.482;9.108;2022-09-27T02:47:07;10.70;99.90
21844;DHT22;11084;52.482;9.108;2022-09-27T02:53:14;10.70;99.90
21844;DHT22;11084;52.482;9.108;2022-09-27T02:56:12;10.70;99.90
21844;DHT22;11084;52.482;9.108;2022-09-27T03:02:13;10.70;99.90
21844;DHT22;11084;52.482;9.108;2022-09-27T03:05:24;10.70;99.90
21844;DHT22;11084;52.482;9.108;2022-09-27T03:07:52;10.70;99.90
21844;DHT22;11084;52.482;9.108;2022-09-27T03:10:23;10.70;99.90
21844;DHT22;11084;52.482;9.108;2022-09-27T03:12:52;10.70;99.90
21844;DHT22;11084;52.482;9.108;2022-09-27T03:15:19;10.70;99.90
21844;DHT22;11084;52.482;9.108;2022-09-27T03:18:15;10.60;99.90
21844;DHT22;11084;52.482;9.108;2022-09-27T03:20:41;10.60;99.90
21844;DHT22;11084;52.482;9.108;2022-09-27T03:23:09;10.60;99.90
21844;DHT22;11084;52.482;9.108;2022-09-27T03:25:36;10.60;99.90
21844;DHT22;11084;52.482;9.108;2022-09-27T03:28:02;10.60;99.90
21844;DHT22;11084;52.482;9.108;2022-09-27T03:30:29;10.60;99.90
21844;DHT22;11084;52.482;9.108;2022-09-27T03:32:55;10.60;99.90
21844;DHT22;11084;52.482;9.108;2022-09-27T03:35:40;10.60;99.90
21844;DHT22;11084;52.482;9.108;2022-09-27T03:38:08;10.60;99.90
21844;DHT22;11084;52.482;9.108;2022-09-27T03:40:36;10.60;99.90
21844;DHT22;11084;52.482;9.108;2022-09-27T03:43:03;10.60;99.90
21844;DHT22;11084;52.482;9.108;2022-09-27T03:45:31;10.60;99.90
21844;DHT22;11084;52.482;9.108;2022-09-27T03:48:01;10.50;99.90
21844;DHT22;11084;52.482;9.108;2022-09-27T03:50:27;10.50;99.90
21844;DHT22;11084;52.482;9.108;2022-09-27T03:52:55;10.50;99.90
21844;DHT22;11084;52.482;9.108;2022-09-27T03:55:23;10.50;99.90
21844;DHT22;11084;52.482;9.108;2022-09-27T03:57:49;10.50;99.90
21844;DHT22;11084;52.482;9.108;2022-09-27T04:00:17;10.50;99.90
21844;DHT22;11084;52.482;9.108;2022-09-27T04:02:44;10.50;99.90
21844;DHT22;11084;52.482;9.108;2022-09-27T04:05:27;10.40;99.90
21844;DHT22;11084;52.482;9.108;2022-09-27T04:08:16;10.40;99.90
21844;DHT22;11084;52.482;9.108;2022-09-27T04:10:45;10.40;99.90
21844;DHT22;11084;52.482;9.108;2022-09-27T04:13:11;10.40;99.90
21844;DHT22;11084;52.482;9.108;2022-09-27T04:15:44;10.40;99.90
21844;DHT22;11084;52.482;9.108;2022-09-27T04:18:29;10.40;99.90
21844;DHT22;11084;52.482;9.108;2022-09-27T04:21:18;10.40;99.90
21844;DHT22;11084;52.482;9.108;2022-09-27T04:23:50;10.40;99.90
21844;DHT22;11084;52.482;9.108;2022-09-27T04:26:19;10.40;99.90
21844;DHT22;11084;52.482;9.108;2022-09-27T04:29:01;10.40;99.90
21844;DHT22;11084;52.482;9.108;2022-09-27T04:31:27;10.30;99.90
21844;DHT22;11084;52.482;9.108;2022-09-27T04:34:14;10.40;99.90
21844;DHT22;11084;52.482;9.108;2022-09-27T04:36:41;10.30;99.90
21844;DHT22;11084;52.482;9.108;2022-09-27T04:39:12;10.30;99.90
21844;DHT22;11084;52.482;9.108;2022-09-27T04:41:41;10.30;99.90
21844;DHT22;11084;52.482;9.108;2022-09-27T04:44:07;10.30;99.90
21844;DHT22;11084;52.482;9.108;2022-09-27T04:46:34;10.30;99.90
21844;DHT22;11084;52.482;9.108;2022-09-27T04:49:01;10.30;99.90
21844;DHT22;11084;52.482;9.108;2022-09-27T04:51:29;10.30;99.90
21844;DHT22;11084;52.482;9.108;2022-09-27T04:53:56;10.30;99.90
21844;DHT22;11084;52.482;9.108;2022-09-27T04:58:53;10.30;99.90
21844;DHT22;11084;52.482;9.108;2022-09-27T05:01:19;10.30;99.90
21844;DHT22;11084;52.482;9.108;2022-09-27T05:03:51;10.30;99.90
21844;DHT22;11084;52.482;9.108;2022-09-27T05:06:17;10.30;99.90
21844;DHT22;11084;52.482;9.108;2022-09-27T05:08:44;10.30;99.90
21844;DHT22;11084;52.482;9.108;2022-09-27T05:11:28;10.20;99.90
21844;DHT22;11084;52.482;9.108;2022-09-27T05:14:20;10.20;99.90
21844;DHT22;11084;52.482;9.108;2022-09-27T05:17:09;10.20;99.90
21844;DHT22;11084;52.482;9.108;2022-09-27T05:19:58;10.20;99.90
21844;DHT22;11084;52.482;9.108;2022-09-27T05:25:04;10.10;99.90
21844;DHT22;11084;52.482;9.108;2022-09-27T05:27:31;10.10;99.90
21844;DHT22;11084;52.482;9.108;2022-09-27T05:29:59;10.10;99.90
21844;DHT22;11084;52.482;9.108;2022-09-27T05:32:43;10.10;99.90
21844;DHT22;11084;52.482;9.108;2022-09-27T05:35:31;10.10;99.90
21844;DHT22;11084;52.482;9.108;2022-09-27T05:37:59;10.10;99.90
21844;DHT22;11084;52.482;9.108;2022-09-27T05:40:28;10.10;99.90
21844;DHT22;11084;52.482;9.108;2022-09-27T05:42:55;10.10;99.90
21844;DHT22;11084;52.482;9.108;2022-09-27T05:45:23;10.10;99.90
21844;DHT22;11084;52.482;9.108;2022-09-27T05:47:55;10.00;99.90
21844;DHT22;11084;52.482;9.108;2022-09-27T05:50:24;10.10;99.90
21844;DHT22;11084;52.482;9.108;2022-09-27T05:52:52;10.10;99.90
21844;DHT22;11084;52.482;9.108;2022-09-27T05:55:19;10.00;99.90
21844;DHT22;11084;52.482;9.108;2022-09-27T05:57:57;10.00;99.90
21844;DHT22;11084;52.482;9.108;2022-09-27T06:00:31;10.00;99.90
21844;DHT22;11084;52.482;9.108;2022-09-27T06:03:02;10.00;99.90
21844;DHT22;11084;52.482;9.108;2022-09-27T06:05:53;10.00;99.90
21844;DHT22;11084;52.482;9.108;2022-09-27T06:08:38;10.00;99.90
21844;DHT22;11084;52.482;9.108;2022-09-27T06:11:09;10.00;99.90
21844;DHT22;11084;52.482;9.108;2022-09-27T06:13:39;10.00;99.90
21844;DHT22;11084;52.482;9.108;2022-09-27T06:16:07;10.10;99.90
21844;DHT22;11084;52.482;9.108;2022-09-27T06:18:36;10.10;99.90
21844;DHT22;11084;52.482;9.108;2022-09-27T06:21:04;10.10;99.90
21844;DHT22;11084;52.482;9.108;2022-09-27T06:23:32;10.10;99.90
21844;DHT22;11084;52.482;9.108;2022-09-27T06:26:02;10.20;99.90
21844;DHT22;11084;52.482;9.108;2022-09-27T06:28:40;10.20;99.90
21844;DHT22;11084;52.482;9.108;2022-09-27T06:31:07;10.20;99.90
21844;DHT22;11084;52.482;9.108;2022-09-27T06:33:39;10.20;99.90
21844;DHT22;11084;52.482;9.108;2022-09-27T06:36:07;10.20;99.90
21844;DHT22;11084;52.482;9.108;2022-09-27T06:38:35;10.20;99.90
21844;DHT22;11084;52.482;9.108;2022-09-27T06:41:15;10.30;99.90
21844;DHT22;11084;52.482;9.108;2022-09-27T06:44:05;10.30;99.90
21844;DHT22;11084;52.482;9.108;2022-09-27T06:47:06;10.30;99.90
21844;DHT22;11084;52.482;9.108;2022-09-27T06:49:51;10.30;99.90
21844;DHT22;11084;52.482;9.108;2022-09-27T06:52:19;10.30;99.90
21844;DHT22;11084;52.482;9.108;2022-09-27T06:57:12;10.30;99.90
21844;DHT22;11084;52.482;9.108;2022-09-27T06:59:58;10.30;99.90
21844;DHT22;11084;52.482;9.108;2022-09-27T07:03:02;10.30;99.90
21844;DHT22;11084;52.482;9.108;2022-09-27T07:05:39;10.30;99.90
21844;DHT22;11084;52.482;9.108;2022-09-27T07:08:25;10.30;99.90
21844;DHT22;11084;52.482;9.108;2022-09-27T07:10:55;10.30;99.90
21844;DHT22;11084;52.482;9.108;2022-09-27T07:13:25;10.40;99.90
21844;DHT22;11084;52.482;9.108;2022-09-27T07:15:54;10.30;99.90
21844;DHT22;11084;52.482;9.108;2022-09-27T07:18:20;10.30;99.90
21844;DHT22;11084;52.482;9.108;2022-09-27T07:20:46;10.30;99.90
21844;DHT22;11084;52.482;9.108;2022-09-27T07:23:13;10.40;99.90
21844;DHT22;11084;52.482;9.108;2022-09-27T07:25:39;10.40;99.90
21844;DHT22;11084;52.482;9.108;2022-09-27T07:28:15;10.40;99.90
21844;DHT22;11084;52.482;9.108;2022-09-27T07:30:42;10.40;99.90
21844;DHT22;11084;52.482;9.108;2022-09-27T07:33:09;10.40;99.90
21844;DHT22;11084;52.482;9.108;2022-09-27T07:35:39;10.40;99.90
21844;DHT22;11084;52.482;9.108;2022-09-27T07:38:06;10.40;99.90
21844;DHT22;11084;52.482;9.108;2022-09-27T07:40:38;10.40;99.90
21844;DHT22;11084;52.482;9.108;2022-09-27T07:43:05;10.40;99.90
21844;DHT22;11084;52.482;9.108;2022-09-27T07:45:33;10.50;99.90
21844;DHT22;11084;52.482;9.108;2022-09-27T07:48:12;10.50;99.90
21844;DHT22;11084;52.482;9.108;2022-09-27T07:50:57;10.60;99.90
21844;DHT22;11084;52.482;9.108;2022-09-27T07:53:41;10.70;99.90
21844;DHT22;11084;52.482;9.108;2022-09-27T07:56:26;10.70;99.90
21844;DHT22;11084;52.482;9.108;2022-09-27T07:58:55;10.80;99.90
21844;DHT22;11084;52.482;9.108;2022-09-27T08:01:21;10.90;99.90
21844;DHT22;11084;52.482;9.108;2022-09-27T08:03:47;10.90;99.90
21844;DHT22;11084;52.482;9.108;2022-09-27T08:06:15;11.00;99.90
21844;DHT22;11084;52.482;9.108;2022-09-27T08:08:42;11.00;99.90
21844;DHT22;11084;52.482;9.108;2022-09-27T08:11:14;11.00;99.90
21844;DHT22;11084;52.482;9.108;2022-09-27T08:13:44;11.10;99.90
21844;DHT22;11084;52.482;9.108;2022-09-27T08:16:11;11.10;99.90
21844;DHT22;11084;52.482;9.108;2022-09-27T08:19:03;11.10;99.90
21844;DHT22;11084;52.482;9.108;2022-09-27T08:21:44;11.20;99.90
21844;DHT22;11084;52.482;9.108;2022-09-27T08:24:15;11.20;99.90
21844;DHT22;11084;52.482;9.108;2022-09-27T08:27:10;11.20;99.90
21844;DHT22;11084;52.482;9.108;2022-09-27T08:29:51;11.20;99.90
21844;DHT22;11084;52.482;9.108;2022-09-27T08:32:17;11.30;99.90
21844;DHT22;11084;52.482;9.108;2022-09-27T08:34:44;11.30;99.90
21844;DHT22;11084;52.482;9.108;2022-09-27T08:37:10;11.40;99.90
21844;DHT22;11084;52.482;9.108;2022-09-27T08:39:37;11.40;99.90
21844;DHT22;11084;52.482;9.108;2022-09-27T08:47:48;11.40;99.90
21844;DHT22;11084;52.482;9.108;2022-09-27T08:53:19;11.50;99.90
21844;DHT22;11084;52.482;9.108;2022-09-27T08:55:56;11.50;99.90
21844;DHT22;11084;52.482;9.108;2022-09-27T09:01:23;11.60;99.90
21844;DHT22;11084;52.482;9.108;2022-09-27T09:04:02;11.70;99.90
21844;DHT22;11084;52.482;9.108;2022-09-27T09:25:31;12.30;99.90
21844;DHT22;11084;52.482;9.108;2022-09-27T09:28:30;12.30;99.90
21844;DHT22;11084;52.482;9.108;2022-09-27T09:31:39;12.40;99.90
21844;DHT22;11084;52.482;9.108;2022-09-27T09:34:21;12.40;99.90
21844;DHT22;11084;52.482;9.108;2022-09-27T09:36:51;12.40;99.90
21844;DHT22;11084;52.482;9.108;2022-09-27T09:39:53;12.40;99.90
21844;DHT22;11084;52.482;9.108;2022-09-27T09:42:29;12.40;99.90
21844;DHT22;11084;52.482;9.108;2022-09-27T09:50:54;12.40;99.90
21844;DHT22;11084;52.482;9.108;2022-09-27T09:56:47;12.60;99.90
21844;DHT22;11084;52.482;9.108;2022-09-27T09:59:28;12.70;99.90
21844;DHT22;11084;52.482;9.108;2022-09-27T10:02:20;12.90;99.90
21844;DHT22;11084;52.482;9.108;2022-09-27T10:04:54;13.00;99.90
21844;DHT22;11084;52.482;9.108;2022-09-27T10:07:22;13.30;99.90
21844;DHT22;11084;52.482;9.108;2022-09-27T10:09:50;13.60;99.90
21844;DHT22;11084;52.482;9.108;2022-09-27T10:12:47;13.70;99.90
21844;DHT22;11084;52.482;9.108;2022-09-27T10:15:22;13.70;99.90
21844;DHT22;11084;52.482;9.108;2022-09-27T10:17:52;13.70;99.90
21844;DHT22;11084;52.482;9.108;2022-09-27T10:20:34;13.60;99.90
21844;DHT22;11084;52.482;9.108;2022-09-27T10:23:25;13.60;99.90
21844;DHT22;11084;52.482;9.108;2022-09-27T10:26:20;13.60;99.90
21844;DHT22;11084;52.482;9.108;2022-09-27T10:28:49;13.70;99.90
21844;DHT22;11084;52.482;9.108;2022-09-27T10:31:34;13.80;99.90
21844;DHT22;11084;52.482;9.108;2022-09-27T10:39:48;14.10;99.90
21844;DHT22;11084;52.482;9.108;2022-09-27T10:42:36;14.10;99.90
21844;DHT22;11084;52.482;9.108;2022-09-27T10:48:00;14.10;99.90
21844;DHT22;11084;52.482;9.108;2022-09-27T10:50:38;14.00;99.90
21844;DHT22;11084;52.482;9.108;2022-09-27T10:53:24;13.90;99.90
21844;DHT22;11084;52.482;9.108;2022-09-27T10:55:59;13.60;99.90
21844;DHT22;11084;52.482;9.108;2022-09-27T11:01:04;13.50;99.90
21844;DHT22;11084;52.482;9.108;2022-09-27T11:03:56;13.30;99.90
21844;DHT22;11084;52.482;9.108;2022-09-27T11:08:52;13.10;99.90
21844;DHT22;11084;52.482;9.108;2022-09-27T11:11:24;13.10;99.90
21844;DHT22;11084;52.482;9.108;2022-09-27T11:14:19;13.10;99.90
21844;DHT22;11084;52.482;9.108;2022-09-27T11:29:24;12.80;99.90
21844;DHT22;11084;52.482;9.108;2022-09-27T11:35:36;12.70;99.90
21844;DHT22;11084;52.482;9.108;2022-09-27T11:38:30;12.60;99.90
21844;DHT22;11084;52.482;9.108;2022-09-27T11:41:21;13.90;99.90
21844;DHT22;11084;52.482;9.108;2022-09-27T11:47:42;12.50;99.90
21844;DHT22;11084;52.482;9.108;2022-09-27T12:06:08;12.00;99.90
21844;DHT22;11084;52.482;9.108;2022-09-27T12:11:36;11.90;99.90
21844;DHT22;11084;52.482;9.108;2022-09-27T12:14:31;11.90;99.90
21844;DHT22;11084;52.482;9.108;2022-09-27T12:17:04;12.00;99.90
21844;DHT22;11084;52.482;9.108;2022-09-27T12:19:39;12.00;99.90
21844;DHT22;11084;52.482;9.108;2022-09-27T12:22:27;12.00;99.90
21844;DHT22;11084;52.482;9.108;2022-09-27T12:25:01;12.00;99.90
21844;DHT22;11084;52.482;9.108;2022-09-27T12:27:42;12.10;99.90
21844;DHT22;11084;52.482;9.108;2022-09-27T12:30:16;12.10;99.90
21844;DHT22;11084;52.482;9.108;2022-09-27T12:32:55;12.10;99.90
21844;DHT22;11084;52.482;9.108;2022-09-27T12:35:29;12.10;99.90
21844;DHT22;11084;52.482;9.108;2022-09-27T12:38:05;12.10;99.90
21844;DHT22;11084;52.482;9.108;2022-09-27T12:40:40;12.10;99.90
21844;DHT22;11084;52.482;9.108;2022-09-27T12:43:26;12.10;99.90
21844;DHT22;11084;52.482;9.108;2022-09-27T12:49:10;12.10;99.90
21844;DHT22;11084;52.482;9.108;2022-09-27T12:52:05;12.10;99.90
21844;DHT22;11084;52.482;9.108;2022-09-27T13:00:52;12.30;99.90
21844;DHT22;11084;52.482;9.108;2022-09-27T13:12:23;12.50;99.90
21844;DHT22;11084;52.482;9.108;2022-09-27T13:25:51;12.90;99.90
21844;DHT22;11084;52.482;9.108;2022-09-27T13:31:02;12.90;99.90
21844;DHT22;11084;52.482;9.108;2022-09-27T13:36:19;12.60;99.90
21844;DHT22;11084;52.482;9.108;2022-09-27T13:42:10;12.30;99.90
21844;DHT22;11084;52.482;9.108;2022-09-27T13:45:08;12.30;99.90
21844;DHT22;11084;52.482;9.108;2022-09-27T13:47:45;12.30;99.90
21844;DHT22;11084;52.482;9.108;2022-09-27T13:50:38;12.30;99.90
21844;DHT22;11084;52.482;9.108;2022-09-27T13:53:36;12.30;99.90
21844;DHT22;11084;52.482;9.108;2022-09-27T13:56:05;12.30;99.90
21844;DHT22;11084;52.482;9.108;2022-09-27T13:58:56;12.30;99.90
21844;DHT22;11084;52.482;9.108;2022-09-27T14:01:54;12.40;99.90
21844;DHT22;11084;52.482;9.108;2022-09-27T14:04:48;12.30;99.90
21844;DHT22;11084;52.482;9.108;2022-09-27T14:07:18;12.40;99.90
21844;DHT22;11084;52.482;9.108;2022-09-27T14:09:54;12.40;99.90
21844;DHT22;11084;52.482;9.108;2022-09-27T14:12:31;12.30;99.90
21844;DHT22;11084;52.482;9.108;2022-09-27T14:15:02;12.30;99.90
21844;DHT22;11084;52.482;9.108;2022-09-27T14:17:30;12.30;99.90
21844;DHT22;11084;52.482;9.108;2022-09-27T14:19:58;12.30;99.90
21844;DHT22;11084;52.482;9.108;2022-09-27T14:22:25;12.30;99.90
21844;DHT22;11084;52.482;9.108;2022-09-27T14:25:16;12.30;99.90
21844;DHT22;11084;52.482;9.108;2022-09-27T14:27:46;12.30;99.90
21844;DHT22;11084;52.482;9.108;2022-09-27T14:30:41;12.30;99.90
21844;DHT22;11084;52.482;9.108;2022-09-27T14:33:29;12.30;99.90
21844;DHT22;11084;52.482;9.108;2022-09-27T14:36:33;12.30;99.90
21844;DHT22;11084;52.482;9.108;2022-09-27T14:39:26;12.10;99.90
21844;DHT22;11084;52.482;9.108;2022-09-27T14:42:00;12.10;99.90
21844;DHT22;11084;52.482;9.108;2022-09-27T14:44:29;12.10;99.90
21844;DHT22;11084;52.482;9.108;2022-09-27T14:47:18;12.10;99.90
21844;DHT22;11084;52.482;9.108;2022-09-27T14:52:23;12.10;99.90
21844;DHT22;11084;52.482;9.108;2022-09-27T14:54:57;12.10;99.90
21844;DHT22;11084;52.482;9.108;2022-09-27T14:57:31;12.00;99.90
21844;DHT22;11084;52.482;9.108;2022-09-27T15:02:46;12.00;99.90
21844;DHT22;11084;52.482;9.108;2022-09-27T15:05:15;11.90;99.90
21844;DHT22;11084;52.482;9.108;2022-09-27T15:07:44;12.00;99.90
21844;DHT22;11084;52.482;9.108;2022-09-27T15:10:17;12.00;99.90
21844;DHT22;11084;52.482;9.108;2022-09-27T15:12:47;12.00;99.90
21844;DHT22;11084;52.482;9.108;2022-09-27T15:15:23;12.00;99.90
21844;DHT22;11084;52.482;9.108;2022-09-27T15:17:51;12.00;99.90
21844;DHT22;11084;52.482;9.108;2022-09-27T15:20:33;12.00;99.90
21844;DHT22;11084;52.482;9.108;2022-09-27T15:23:02;12.00;99.90
21844;DHT22;11084;52.482;9.108;2022-09-27T15:25:30;12.00;99.90
21844;DHT22;11084;52.482;9.108;2022-09-27T15:28:12;12.00;99.90
21844;DHT22;11084;52.482;9.108;2022-09-27T15:30:46;11.20;99.90
21844;DHT22;11084;52.482;9.108;2022-09-27T15:33:20;12.00;99.90
21844;DHT22;11084;52.482;9.108;2022-09-27T15:35:58;11.90;99.90
21844;DHT22;11084;52.482;9.108;2022-09-27T15:38:30;11.90;99.90
21844;DHT22;11084;52.482;9.108;2022-09-27T15:49:21;11.60;99.90
21844;DHT22;11084;52.482;9.108;2022-09-27T15:51:53;11.50;99.90
21844;DHT22;11084;52.482;9.108;2022-09-27T15:54:22;11.40;99.90
21844;DHT22;11084;52.482;9.108;2022-09-27T15:56:51;11.40;99.90
21844;DHT22;11084;52.482;9.108;2022-09-27T15:59:26;11.40;99.90
21844;DHT22;11084;52.482;9.108;2022-09-27T16:01:56;11.40;99.90
21844;DHT22;11084;52.482;9.108;2022-09-27T16:04:24;11.50;99.90
21844;DHT22;11084;52.482;9.108;2022-09-27T16:06:54;11.50;99.90
21844;DHT22;11084;52.482;9.108;2022-09-27T16:09:20;11.50;99.90
21844;DHT22;11084;52.482;9.108;2022-09-27T16:11:48;11.50;99.90
21844;DHT22;11084;52.482;9.108;2022-09-27T16:14:15;11.50;99.90
21844;DHT22;11084;52.482;9.108;2022-09-27T16:16:45;11.50;99.90
21844;DHT22;11084;52.482;9.108;2022-09-27T16:19:12;11.60;99.90
21844;DHT22;11084;52.482;9.108;2022-09-27T16:21:41;11.60;99.90
21844;DHT22;11084;52.482;9.108;2022-09-27T16:24:09;11.50;99.90
21844;DHT22;11084;52.482;9.108;2022-09-27T16:26:35;11.50;99.90
21844;DHT22;11084;52.482;9.108;2022-09-27T16:29:03;11.50;99.90
21844;DHT22;11084;52.482;9.108;2022-09-27T16:31:29;11.50;99.90
21844;DHT22;11084;52.482;9.108;2022-09-27T16:33:55;11.50;99.90
21844;DHT22;11084;52.482;9.108;2022-09-27T16:36:21;11.60;99.90
21844;DHT22;11084;52.482;9.108;2022-09-27T16:38:51;11.50;99.90
21844;DHT22;11084;52.482;9.108;2022-09-27T16:41:19;11.50;99.90
21844;DHT22;11084;52.482;9.108;2022-09-27T16:43:47;11.50;99.90
21844;DHT22;11084;52.482;9.108;2022-09-27T16:46:14;11.50;99.90
21844;DHT22;11084;52.482;9.108;2022-09-27T16:48:44;11.50;99.90
21844;DHT22;11084;52.482;9.108;2022-09-27T16:54:02;11.40;99.90
21844;DHT22;11084;52.482;9.108;2022-09-27T16:56:30;11.40;99.90
21844;DHT22;11084;52.482;9.108;2022-09-27T16:58:59;11.30;99.90
21844;DHT22;11084;52.482;9.108;2022-09-27T17:01:28;11.30;99.90
21844;DHT22;11084;52.482;9.108;2022-09-27T17:03:57;11.30;99.90
21844;DHT22;11084;52.482;9.108;2022-09-27T17:06:25;11.20;99.90
21844;DHT22;11084;52.482;9.108;2022-09-27T17:08:53;11.20;99.90
21844;DHT22;11084;52.482;9.108;2022-09-27T17:11:21;11.10;99.90
21844;DHT22;11084;52.482;9.108;2022-09-27T17:13:47;11.00;99.90
21844;DHT22;11084;52.482;9.108;2022-09-27T17:16:14;11.00;99.90
21844;DHT22;11084;52.482;9.108;2022-09-27T17:18:41;10.90;99.90
21844;DHT22;11084;52.482;9.108;2022-09-27T17:21:07;10.90;99.90
21844;DHT22;11084;52.482;9.108;2022-09-27T17:23:34;10.80;99.90
21844;DHT22;11084;52.482;9.108;2022-09-27T17:26:22;10.80;99.90
21844;DHT22;11084;52.482;9.108;2022-09-27T17:28:48;10.70;99.90
21844;DHT22;11084;52.482;9.108;2022-09-27T17:31:16;10.60;99.90
21844;DHT22;11084;52.482;9.108;2022-09-27T17:33:50;10.60;99.90
21844;DHT22;11084;52.482;9.108;2022-09-27T17:36:20;10.60;99.90
21844;DHT22;11084;52.482;9.108;2022-09-27T17:38:48;10.50;99.90
21844;DHT22;11084;52.482;9.108;2022-09-27T17:41:17;10.50;99.90
21844;DHT22;11084;52.482;9.108;2022-09-27T17:43:45;10.30;99.90
21844;DHT22;11084;52.482;9.108;2022-09-27T17:46:25;10.30;99.90
21844;DHT22;11084;52.482;9.108;2022-09-27T17:48:53;10.30;99.90
21844;DHT22;11084;52.482;9.108;2022-09-27T17:51:39;10.20;99.90
21844;DHT22;11084;52.482;9.108;2022-09-27T17:54:09;10.20;99.90
21844;DHT22;11084;52.482;9.108;2022-09-27T17:56:36;10.10;99.90
21844;DHT22;11084;52.482;9.108;2022-09-27T17:59:07;10.00;99.90
21844;DHT22;11084;52.482;9.108;2022-09-27T18:01:34;10.00;99.90
21844;DHT22;11084;52.482;9.108;2022-09-27T18:04:13;10.00;99.90
21844;DHT22;11084;52.482;9.108;2022-09-27T18:06:42;9.80;99.90
21844;DHT22;11084;52.482;9.108;2022-09-27T18:09:12;9.80;99.90
21844;DHT22;11084;52.482;9.108;2022-09-27T18:11:40;9.80;99.90
21844;DHT22;11084;52.482;9.108;2022-09-27T18:14:07;9.70;99.90
21844;DHT22;11084;52.482;9.108;2022-09-27T18:16:37;9.60;99.90
21844;DHT22;11084;52.482;9.108;2022-09-27T18:19:10;9.50;99.90
21844;DHT22;11084;52.482;9.108;2022-09-27T18:21:40;9.60;99.90
21844;DHT22;11084;52.482;9.108;2022-09-27T18:24:06;9.50;99.90
21844;DHT22;11084;52.482;9.108;2022-09-27T18:26:34;9.40;99.90
21844;DHT22;11084;52.482;9.108;2022-09-27T18:29:08;9.40;99.90
21844;DHT22;11084;52.482;9.108;2022-09-27T18:31:36;9.40;99.90
21844;DHT22;11084;52.482;9.108;2022-09-27T18:34:03;9.30;99.90
21844;DHT22;11084;52.482;9.108;2022-09-27T18:36:30;9.30;99.90
21844;DHT22;11084;52.482;9.108;2022-09-27T18:38:59;9.20;99.90
21844;DHT22;11084;52.482;9.108;2022-09-27T18:41:28;9.20;99.90
21844;DHT22;11084;52.482;9.108;2022-09-27T18:43:58;9.20;99.90
21844;DHT22;11084;52.482;9.108;2022-09-27T18:46:29;9.20;99.90
21844;DHT22;11084;52.482;9.108;2022-09-27T18:48:56;9.10;99.90
21844;DHT22;11084;52.482;9.108;2022-09-27T18:51:24;9.00;99.90
21844;DHT22;11084;52.482;9.108;2022-09-27T18:54:02;9.00;99.90
21844;DHT22;11084;52.482;9.108;2022-09-27T18:56:31;9.00;99.90
21844;DHT22;11084;52.482;9.108;2022-09-27T18:59:05;8.90;99.90
21844;DHT22;11084;52.482;9.108;2022-09-27T19:01:40;8.90;99.90
21844;DHT22;11084;52.482;9.108;2022-09-27T19:04:11;8.90;99.90
21844;DHT22;11084;52.482;9.108;2022-09-27T19:06:38;8.90;99.90
21844;DHT22;11084;52.482;9.108;2022-09-27T19:09:06;8.80;99.90
21844;DHT22;11084;52.482;9.108;2022-09-27T19:11:33;8.80;99.90
21844;DHT22;11084;52.482;9.108;2022-09-27T19:14:00;8.80;99.90
21844;DHT22;11084;52.482;9.108;2022-09-27T19:16:27;8.70;99.90
21844;DHT22;11084;52.482;9.108;2022-09-27T19:18:54;8.70;99.90
21844;DHT22;11084;52.482;9.108;2022-09-27T19:21:23;8.70;99.90
21844;DHT22;11084;52.482;9.108;2022-09-27T19:23:51;8.60;99.90
21844;DHT22;11084;52.482;9.108;2022-09-27T19:26:20;8.60;99.90
21844;DHT22;11084;52.482;9.108;2022-09-27T19:28:48;8.60;99.90
21844;DHT22;11084;52.482;9.108;2022-09-27T19:31:16;8.60;99.90